Time;durP1;ratioP1;P1;durP2;ratioP2;P2;SDS_P1;SDS_P2;PMS_P1;PMS_P2;Temp;Humidity;BMP_temperature;BMP_pressure;BME280_temperature;BME280_humidity;BME280_pressure;Samples;Min_cycle;Max_cycle;Signal;HPM_P1;HPM_P2
2021/06/20 00:01:56;;;;;;;10.65;4.38;;;;;;;21.74;81.59;100419.19;4838490;29;20065;-68
2021/06/20 00:04:24;;;;;;;15.38;6.50;;;;;;;21.80;80.96;100417.66;4838663;29;20498;-69
2021/06/20 00:06:51;;;;;;;11.88;3.90;;;;;;;21.68;80.94;100420.78;4837411;29;20054;-71
2021/06/20 00:09:19;;;;;;;8.65;3.90;;;;;;;21.64;81.67;100419.94;4837466;29;20455;-68
2021/06/20 00:11:48;;;;;;;9.60;3.80;;;;;;;21.71;81.14;100430.38;4808601;29;20485;-69
2021/06/20 00:14:17;;;;;;;7.70;3.58;;;;;;;21.70;81.07;100429.59;4838492;29;20066;-71
2021/06/20 00:16:47;;;;;;;9.85;4.20;;;;;;;21.71;80.94;100422.78;4837397;29;20490;-71
2021/06/20 00:19:14;;;;;;;12.15;4.70;;;;;;;21.91;80.01;100426.91;4838670;29;20050;-71
2021/06/20 00:21:42;;;;;;;12.88;4.03;;;;;;;21.75;81.25;100425.59;4838708;29;20050;-69
2021/06/20 00:24:09;;;;;;;8.85;3.97;;;;;;;21.63;81.85;100425.97;4838106;29;20069;-70
2021/06/20 00:26:37;;;;;;;9.07;3.95;;;;;;;21.79;80.97;100415.25;4838526;29;20065;-70
2021/06/20 00:29:04;;;;;;;11.63;3.80;;;;;;;21.56;80.73;100414.72;4840117;29;20409;-70
2021/06/20 00:31:32;;;;;;;8.63;3.67;;;;;;;21.53;80.17;100405.09;4838103;29;20054;-69
2021/06/20 00:33:59;;;;;;;7.18;2.53;;;;;;;21.68;77.22;100400.34;4838200;29;20085;-69
2021/06/20 00:36:27;;;;;;;8.48;3.50;;;;;;;21.17;77.92;100406.13;4901195;29;20069;-70
2021/06/20 00:38:54;;;;;;;7.82;2.83;;;;;;;21.07;77.31;100406.88;4839659;29;20050;-71
2021/06/20 00:41:21;;;;;;;6.53;2.25;;;;;;;21.01;76.36;100409.25;4837274;29;20070;-69
2021/06/20 00:43:49;;;;;;;4.50;1.70;;;;;;;21.15;75.54;100414.13;4838407;29;20405;-69
2021/06/20 00:46:16;;;;;;;4.28;1.90;;;;;;;21.09;75.03;100410.09;4838246;29;20054;-69
2021/06/20 00:48:44;;;;;;;5.13;1.98;;;;;;;21.14;74.30;100413.34;4821369;29;20070;-70
2021/06/20 00:51:11;;;;;;;5.45;1.50;;;;;;;20.98;73.36;100409.19;4841194;29;20053;-70
2021/06/20 00:53:39;;;;;;;6.07;2.03;;;;;;;20.91;73.90;100406.34;4837971;29;20054;-69
2021/06/20 00:56:06;;;;;;;7.00;2.05;;;;;;;20.85;73.40;100411.50;4837989;29;20061;-69
2021/06/20 00:58:33;;;;;;;6.13;2.15;;;;;;;21.02;73.41;100413.66;4837807;29;20422;-69
2021/06/20 01:01:01;;;;;;;5.03;1.70;;;;;;;21.01;73.14;100406.44;4837448;29;20065;-69
2021/06/20 01:07:57;;;;;;;4.30;1.50;;;;;;;20.71;73.56;100410.63;4838370;29;20042;-71
2021/06/20 01:10:30;;;;;;;6.68;1.70;;;;;;;20.73;73.90;100402.63;4836631;29;20058;-70
2021/06/20 01:12:57;;;;;;;5.95;2.08;;;;;;;20.67;74.03;100398.56;4885383;29;20060;-69
2021/06/20 01:15:26;;;;;;;5.72;1.90;;;;;;;20.61;74.16;100405.72;4835813;29;20058;-70
2021/06/20 01:22:32;;;;;;;4.88;1.80;;;;;;;20.53;74.53;100398.47;4842178;29;20386;-70
2021/06/20 01:25:03;;;;;;;8.55;1.80;;;;;;;20.64;74.31;100402.94;4839336;29;20058;-74
2021/06/20 01:27:53;;;;;;;5.50;1.70;;;;;;;20.60;73.69;100410.53;4841164;29;20053;-71
2021/06/20 01:30:31;;;;;;;4.32;2.00;;;;;;;20.58;74.21;100407.31;4840794;29;20054;-71
2021/06/20 01:37:26;;;;;;;6.20;1.75;;;;;;;20.48;75.58;100415.63;4840747;29;20502;-72
2021/06/20 01:39:53;;;;;;;9.32;1.95;;;;;;;20.50;75.23;100413.25;4842636;29;20069;-73
2021/06/20 01:42:21;;;;;;;7.10;1.95;;;;;;;20.45;75.49;100410.81;4840716;29;20056;-76
2021/06/20 01:44:52;;;;;;;5.93;2.10;;;;;;;20.32;76.24;100406.69;4824229;29;20062;-75
2021/06/20 01:47:23;;;;;;;6.10;2.42;;;;;;;20.50;75.80;100397.28;4840620;29;20061;-72
2021/06/20 01:49:51;;;;;;;8.60;2.40;;;;;;;20.76;75.18;100399.06;4840423;29;20053;-74
2021/06/20 01:52:23;;;;;;;9.38;2.63;;;;;;;20.64;75.35;100394.56;4824805;29;20050;-68
2021/06/20 01:54:52;;;;;;;6.75;2.30;;;;;;;20.34;76.15;100399.53;4841761;29;20398;-69
2021/06/20 01:57:22;;;;;;;8.70;2.72;;;;;;;20.41;77.14;100398.78;4839051;29;20386;-71
2021/06/20 01:59:50;;;;;;;10.38;2.30;;;;;;;20.31;76.81;100400.28;4841477;29;20058;-68
2021/06/20 02:02:18;;;;;;;11.50;2.80;;;;;;;20.34;76.79;100391.13;4839964;29;20054;-69
2021/06/20 02:09:23;;;;;;;6.85;2.75;;;;;;;20.29;77.66;100380.31;4841602;29;20054;-70
2021/06/20 02:11:50;;;;;;;7.25;2.47;;;;;;;20.13;78.19;100391.72;4840086;29;20050;-70
2021/06/20 02:14:18;;;;;;;10.82;2.55;;;;;;;20.22;78.63;100393.41;4839807;29;20103;-68
2021/06/20 02:16:45;;;;;;;14.57;2.75;;;;;;;20.10;78.48;100389.66;4841244;29;20066;-73
2021/06/20 02:19:12;;;;;;;7.45;2.88;;;;;;;20.31;78.16;100382.72;4840088;29;20061;-70
2021/06/20 02:21:40;;;;;;;12.15;2.67;;;;;;;20.43;77.97;100383.22;4840303;29;20486;-71
2021/06/20 02:24:08;;;;;;;19.10;3.10;;;;;;;20.37;78.08;100395.94;4840370;29;20051;-74
2021/06/20 02:26:35;;;;;;;9.55;3.25;;;;;;;20.47;77.90;100388.84;4839945;29;20054;-70
2021/06/20 02:29:03;;;;;;;11.52;3.35;;;;;;;20.27;78.85;100404.25;4839120;29;20049;-71
2021/06/20 02:31:31;;;;;;;11.25;2.85;;;;;;;20.26;78.40;100394.25;4840000;29;20081;-72
2021/06/20 02:33:58;;;;;;;9.38;2.85;;;;;;;20.22;79.69;100413.00;4840001;29;20049;-69
2021/06/20 02:36:26;;;;;;;8.48;3.50;;;;;;;20.25;79.45;100410.22;4839841;29;20057;-69
2021/06/20 02:38:53;;;;;;;8.48;3.13;;;;;;;20.17;79.58;100410.56;4838817;29;20058;-70
2021/06/20 02:41:21;;;;;;;12.05;3.20;;;;;;;20.16;79.23;100412.53;4840980;29;20501;-71
2021/06/20 02:43:48;;;;;;;11.77;3.50;;;;;;;20.11;80.08;100418.44;4841023;29;20064;-71
2021/06/20 02:46:15;;;;;;;10.63;3.60;;;;;;;20.22;80.15;100425.00;4839600;29;20501;-69
2021/06/20 02:48:42;;;;;;;11.25;3.53;;;;;;;20.40;78.39;100425.16;4840695;29;20054;-70
2021/06/20 02:51:12;;;;;;;10.02;3.20;;;;;;;20.26;78.79;100433.41;4839838;29;20398;-70
2021/06/20 02:53:39;;;;;;;10.63;2.90;;;;;;;20.30;78.60;100420.25;4902876;29;20054;-71
2021/06/20 02:56:07;;;;;;;9.77;3.13;;;;;;;20.05;79.91;100419.97;4838302;29;20062;-70
2021/06/20 02:58:34;;;;;;;12.35;3.38;;;;;;;20.24;79.46;100413.41;4839754;29;20049;-71
2021/06/20 03:01:02;;;;;;;10.73;2.80;;;;;;;20.31;77.90;100421.88;4840642;29;20049;-69
2021/06/20 03:03:29;;;;;;;5.63;2.33;;;;;;;20.18;77.99;100424.16;4839074;29;20073;-70
2021/06/20 03:05:56;;;;;;;10.95;2.67;;;;;;;19.95;78.48;100429.06;4840002;29;20058;-69
2021/06/20 03:08:24;;;;;;;10.95;2.60;;;;;;;19.78;78.14;100413.72;4840739;29;20061;-70
2021/06/20 03:10:51;;;;;;;10.07;2.67;;;;;;;19.90;77.75;100412.63;4839387;29;20054;-69
2021/06/20 03:13:18;;;;;;;9.85;2.15;;;;;;;19.85;77.63;100424.97;4839327;29;20050;-69
2021/06/20 03:15:46;;;;;;;9.50;2.05;;;;;;;19.77;76.90;100420.47;4839564;29;20410;-69
2021/06/20 03:18:13;;;;;;;10.35;2.17;;;;;;;19.90;76.42;100419.03;4840697;29;20065;-70
2021/06/20 03:20:41;;;;;;;9.35;1.75;;;;;;;20.07;75.51;100421.22;4839446;29;20053;-68
2021/06/20 03:23:10;;;;;;;10.02;2.00;;;;;;;19.89;75.64;100425.81;4840603;29;20054;-69
2021/06/20 03:25:39;;;;;;;4.95;1.67;;;;;;;19.72;75.77;100417.22;4840672;29;20409;-73
2021/06/20 03:28:07;;;;;;;6.85;1.90;;;;;;;19.77;74.89;100406.50;4837748;29;20054;-72
2021/06/20 03:30:35;;;;;;;7.45;1.70;;;;;;;19.78;75.23;100410.13;4840377;29;20516;-74
2021/06/20 03:33:03;;;;;;;6.15;1.80;;;;;;;19.97;74.59;100416.31;4839008;29;20050;-73
2021/06/20 03:35:30;;;;;;;7.88;2.13;;;;;;;19.64;75.30;100413.56;4837867;29;20054;-71
2021/06/20 03:37:58;;;;;;;6.55;1.92;;;;;;;19.64;74.88;100419.16;4838957;29;20239;-71
2021/06/20 03:40:25;;;;;;;5.40;1.67;;;;;;;19.72;75.30;100409.66;4837652;29;20061;-71
2021/06/20 03:42:52;;;;;;;14.05;1.70;;;;;;;19.81;74.13;100404.56;4901621;29;20057;-70
2021/06/20 03:45:20;;;;;;;6.90;1.67;;;;;;;19.67;74.13;100398.00;4837815;29;20058;-70
2021/06/20 03:47:48;;;;;;;5.53;1.75;;;;;;;19.77;73.30;100395.31;4839121;29;20054;-69
2021/06/20 03:50:15;;;;;;;8.07;1.60;;;;;;;19.45;74.41;100404.53;4839178;29;20057;-68
2021/06/20 03:52:43;;;;;;;10.23;1.90;;;;;;;19.15;75.42;100400.91;4837981;29;20050;-70
2021/06/20 03:55:11;;;;;;;6.63;1.88;;;;;;;19.42;75.67;100408.09;4838631;29;20523;-70
2021/06/20 03:57:38;;;;;;;6.93;1.75;;;;;;;19.34;75.78;100404.41;4838425;29;20054;-70
2021/06/20 04:00:08;;;;;;;6.50;1.90;;;;;;;19.25;75.55;100398.25;4838968;29;20054;-68
2021/06/20 04:02:35;;;;;;;6.80;2.20;;;;;;;19.35;75.07;100394.84;4838621;29;20073;-70
2021/06/20 04:05:04;;;;;;;7.78;2.67;;;;;;;19.14;75.65;100402.91;4837421;29;20058;-70
2021/06/20 04:07:31;;;;;;;7.07;1.80;;;;;;;19.36;75.28;100409.59;4839477;29;20069;-69
2021/06/20 04:09:59;;;;;;;5.85;1.73;;;;;;;19.38;74.61;100418.41;4840209;29;20046;-70
2021/06/20 04:12:26;;;;;;;5.95;2.10;;;;;;;19.26;74.15;100416.63;4837603;29;20053;-70
2021/06/20 04:14:53;;;;;;;8.25;2.25;;;;;;;19.51;73.80;100423.34;4838484;29;20057;-70
2021/06/20 04:17:22;;;;;;;7.72;1.77;;;;;;;19.33;73.36;100424.34;4837475;29;20054;-69
2021/06/20 04:19:50;;;;;;;9.38;2.10;;;;;;;19.52;73.16;100430.56;4838548;29;20050;-69
2021/06/20 04:22:17;;;;;;;8.25;2.20;;;;;;;19.49;72.33;100434.09;4838352;29;20054;-69
2021/06/20 04:24:44;;;;;;;8.25;1.85;;;;;;;19.51;72.36;100437.31;4838119;29;20525;-70
2021/06/20 04:27:13;;;;;;;6.43;1.85;;;;;;;19.38;72.99;100446.34;4822290;29;20425;-69
2021/06/20 04:29:40;;;;;;;7.38;1.98;;;;;;;19.25;73.87;100444.94;4837180;29;20509;-69
2021/06/20 04:32:08;;;;;;;6.75;1.90;;;;;;;19.49;73.04;100442.50;4837626;29;20482;-71
2021/06/20 04:34:35;;;;;;;7.90;1.90;;;;;;;19.53;72.91;100448.13;4838039;29;20064;-69
2021/06/20 04:41:30;;;;;;;11.45;2.13;;;;;;;19.53;72.96;100448.13;4838536;29;20046;-71
2021/06/20 04:44:00;;;;;;;4.15;1.60;;;;;;;19.53;72.67;100434.97;4839106;29;20146;-69
2021/06/20 04:46:37;;;;;;;9.00;1.92;;;;;;;19.67;72.52;100420.34;4837039;29;20050;-70
2021/06/20 04:49:07;;;;;;;7.50;2.17;;;;;;;19.38;72.96;100424.00;4900806;29;20061;-70
2021/06/20 04:51:39;;;;;;;5.70;1.63;;;;;;;19.58;72.51;100431.03;4838272;29;20402;-70
2021/06/20 04:54:08;;;;;;;12.65;1.83;;;;;;;19.61;72.56;100430.28;4840732;29;20062;-69
2021/06/20 04:56:36;;;;;;;7.23;2.10;;;;;;;19.62;72.38;100429.91;4840237;29;20387;-69
2021/06/20 04:59:05;;;;;;;6.10;2.00;;;;;;;19.54;72.04;100438.56;4842961;29;20065;-70
2021/06/20 05:01:37;;;;;;;6.15;2.15;;;;;;;19.45;72.27;100433.28;4904444;29;20054;-71
2021/06/20 05:04:05;;;;;;;5.70;1.90;;;;;;;19.47;72.00;100430.09;4840380;29;20061;-71
2021/06/20 05:06:33;;;;;;;6.22;2.05;;;;;;;19.24;72.20;100432.16;4842576;29;20058;-68
2021/06/20 05:09:00;;;;;;;9.13;2.30;;;;;;;19.23;72.02;100422.19;4840928;29;20058;-70
2021/06/20 05:11:28;;;;;;;5.72;2.10;;;;;;;19.32;72.60;100428.31;4903842;29;20058;-69
2021/06/20 05:13:55;;;;;;;8.02;2.13;;;;;;;19.54;71.97;100432.97;4839716;29;20058;-71
2021/06/20 05:16:23;;;;;;;7.22;2.38;;;;;;;19.66;71.79;100429.94;4841576;29;20050;-69
2021/06/20 05:18:50;;;;;;;7.10;2.20;;;;;;;19.60;71.40;100442.63;4839247;29;20056;-69
2021/06/20 05:21:19;;;;;;;8.80;2.85;;;;;;;19.68;71.70;100450.72;4840445;29;20073;-70
2021/06/20 05:23:47;;;;;;;8.70;2.60;;;;;;;19.78;71.45;100452.84;4840462;29;20050;-71
2021/06/20 05:26:14;;;;;;;8.52;2.40;;;;;;;19.76;71.24;100449.63;4839029;29;20050;-70
2021/06/20 05:28:43;;;;;;;12.10;2.95;;;;;;;19.88;71.72;100445.75;4841650;29;20065;-70
2021/06/20 05:31:11;;;;;;;6.15;1.98;;;;;;;19.91;71.86;100454.19;4840686;29;20058;-71
2021/06/20 05:33:39;;;;;;;8.93;2.70;;;;;;;20.06;71.63;100444.78;4841171;29;20143;-71
2021/06/20 05:36:06;;;;;;;8.40;2.40;;;;;;;19.98;72.34;100437.50;4841718;29;20421;-70
2021/06/20 05:38:33;;;;;;;7.47;1.90;;;;;;;20.23;71.70;100448.97;4841472;29;20050;-72
2021/06/20 05:41:01;;;;;;;6.47;1.90;;;;;;;20.17;71.50;100448.50;4840018;29;20065;-72
2021/06/20 05:43:28;;;;;;;7.03;2.40;;;;;;;20.41;71.00;100457.53;4841594;29;20146;-71
2021/06/20 05:45:56;;;;;;;8.32;2.15;;;;;;;20.20;70.36;100443.34;4838943;29;20111;-72
2021/06/20 05:48:24;;;;;;;5.55;1.92;;;;;;;20.43;70.84;100439.19;4840031;29;20064;-70
2021/06/20 05:50:51;;;;;;;10.18;2.78;;;;;;;20.57;69.63;100436.50;4840566;29;20065;-74
2021/06/20 05:53:18;;;;;;;11.23;2.17;;;;;;;20.67;69.59;100446.97;4841817;29;20050;-74
2021/06/20 05:55:46;;;;;;;8.73;2.00;;;;;;;20.55;68.42;100444.47;4824345;29;20050;-70
2021/06/20 05:58:13;;;;;;;6.30;1.75;;;;;;;20.43;68.39;100457.94;4841932;29;20061;-66
2021/06/20 06:00:42;;;;;;;9.35;2.35;;;;;;;20.58;69.62;100449.28;4841815;29;20069;-68
2021/06/20 06:03:09;;;;;;;11.90;2.67;;;;;;;20.47;69.02;100456.00;4840327;29;20153;-74
2021/06/20 06:05:36;;;;;;;12.20;3.03;;;;;;;20.58;69.77;100448.47;4842195;29;20065;-79
2021/06/20 06:12:30;;;;;;;8.45;2.10;;;;;;;20.89;67.06;100456.31;4840296;29;20041;-67
2021/06/20 06:14:58;;;;;;;9.45;2.30;;;;;;;20.57;67.28;100460.88;4841567;29;20080;-75
2021/06/20 06:17:25;;;;;;;8.38;2.17;;;;;;;20.89;66.86;100459.13;4839651;29;20062;-76
2021/06/20 06:19:53;;;;;;;15.60;2.35;;;;;;;21.13;66.35;100450.94;4840058;29;20046;-71
2021/06/20 06:22:21;;;;;;;8.23;2.08;;;;;;;20.79;66.39;100446.66;4839784;29;20516;-76
2021/06/20 06:24:49;;;;;;;10.07;2.28;;;;;;;20.54;66.42;100454.03;4903836;29;20061;-77
2021/06/20 06:27:17;;;;;;;8.48;2.10;;;;;;;20.87;65.72;100439.91;4840399;29;20485;-75
2021/06/20 06:29:44;;;;;;;7.28;2.15;;;;;;;20.48;67.10;100447.22;4840214;29;20101;-72
2021/06/20 06:32:11;;;;;;;7.32;1.90;;;;;;;19.80;68.67;100452.47;4839673;29;20058;-75
2021/06/20 06:34:39;;;;;;;9.05;2.30;;;;;;;20.04;69.00;100444.34;4839870;29;20046;-74
2021/06/20 06:37:07;;;;;;;10.77;2.35;;;;;;;20.15;68.48;100444.47;4838450;29;20061;-74
2021/06/20 06:39:34;;;;;;;8.80;2.20;;;;;;;19.62;69.78;100443.88;4840119;29;20050;-74
2021/06/20 06:42:03;;;;;;;9.05;2.33;;;;;;;19.70;70.77;100442.75;4838607;29;20382;-68
2021/06/20 06:44:31;;;;;;;9.00;2.35;;;;;;;20.04;70.37;100449.94;4838837;29;20470;-72
2021/06/20 06:46:58;;;;;;;10.88;2.45;;;;;;;20.12;69.11;100450.81;4837993;29;20433;-70
2021/06/20 06:49:26;;;;;;;9.60;2.20;;;;;;;20.25;69.79;100454.16;4902878;29;20061;-68
2021/06/20 06:51:53;;;;;;;10.43;2.83;;;;;;;20.23;69.44;100459.34;4837946;29;20065;-72
2021/06/20 06:58:57;;;;;;;8.93;2.28;;;;;;;20.40;67.96;100458.72;4895974;29;20068;-68
2021/06/20 07:01:27;;;;;;;12.63;2.67;;;;;;;20.39;67.46;100457.09;4880021;29;20052;-69
2021/06/20 07:03:55;;;;;;;5.10;1.90;;;;;;;20.25;67.65;100462.56;4896187;29;20056;-70
2021/06/20 07:06:24;;;;;;;10.00;2.08;;;;;;;20.01;69.07;100463.91;4879701;29;20067;-70
2021/06/20 07:13:14;;;;;;;10.90;2.50;;;;;;;19.72;68.74;100459.13;4851510;29;20049;-71
2021/06/20 07:15:42;;;;;;;8.65;2.60;;;;;;;19.75;68.54;100461.97;4837003;29;20061;-70
2021/06/20 07:18:15;;;;;;;6.07;2.35;;;;;;;20.25;67.78;100462.56;4840352;29;20053;-69
2021/06/20 07:20:42;;;;;;;9.30;2.75;;;;;;;20.10;67.32;100467.19;4840868;29;20413;-70
2021/06/20 07:23:09;;;;;;;7.95;3.50;;;;;;;20.33;66.56;100472.66;4838191;29;20058;-74
2021/06/20 07:25:37;;;;;;;7.90;2.95;;;;;;;20.34;67.13;100460.25;4838778;29;20050;-72
2021/06/20 07:28:05;;;;;;;10.90;2.78;;;;;;;20.59;66.33;100462.09;4838816;29;20058;-70
2021/06/20 07:30:32;;;;;;;9.68;2.63;;;;;;;20.67;67.32;100463.78;4838784;29;20073;-70
2021/06/20 07:33:00;;;;;;;7.75;2.40;;;;;;;21.15;64.74;100472.94;4837761;29;20064;-71
2021/06/20 07:35:27;;;;;;;8.40;2.40;;;;;;;20.62;64.77;100486.53;4838896;29;20049;-70
2021/06/20 07:37:56;;;;;;;13.07;2.65;;;;;;;20.40;66.74;100478.31;4886025;29;20089;-71
2021/06/20 07:40:23;;;;;;;7.85;2.28;;;;;;;20.54;67.22;100475.66;4838727;29;20061;-69
2021/06/20 07:42:50;;;;;;;10.70;2.35;;;;;;;20.73;66.68;100475.41;4837541;29;20073;-73
2021/06/20 07:45:19;;;;;;;8.52;2.70;;;;;;;21.44;64.63;100468.31;4839142;29;20057;-71
2021/06/20 07:47:47;;;;;;;16.05;9.45;;;;;;;21.97;62.85;100464.56;4838305;29;20060;-75
2021/06/20 07:50:15;;;;;;;8.50;3.20;;;;;;;22.16;61.22;100452.19;4839049;29;20053;-71
2021/06/20 07:52:43;;;;;;;8.35;2.95;;;;;;;22.47;59.30;100453.44;4839873;29;20061;-73
2021/06/20 07:59:38;;;;;;;6.03;2.30;;;;;;;21.72;60.83;100444.03;4839060;29;20426;-74
2021/06/20 08:02:06;;;;;;;6.88;2.20;;;;;;;22.02;60.97;100444.53;4837599;29;20050;-69
2021/06/20 08:04:33;;;;;;;10.57;2.10;;;;;;;22.43;60.01;100439.41;4838831;29;20115;-73
2021/06/20 08:07:01;;;;;;;10.35;2.15;;;;;;;22.74;58.44;100446.25;4839637;29;20066;-70
2021/06/20 08:13:51;;;;;;;7.93;1.75;;;;;;;22.87;57.02;100430.59;4839842;29;20057;-75
2021/06/20 08:16:19;;;;;;;10.93;2.20;;;;;;;22.28;58.19;100435.78;4837477;29;20058;-77
2021/06/20 08:18:47;;;;;;;12.55;2.47;;;;;;;22.16;58.47;100446.56;4837083;29;20069;-76
2021/06/20 08:21:15;;;;;;;7.97;2.22;;;;;;;22.00;57.77;100441.31;4822335;29;20062;-70
2021/06/20 08:23:43;;;;;;;6.53;1.90;;;;;;;22.18;58.05;100441.34;4837643;29;20057;-70
2021/06/20 08:26:10;;;;;;;7.63;1.83;;;;;;;22.60;58.44;100441.44;4838516;29;20168;-70
2021/06/20 08:28:38;;;;;;;7.65;1.88;;;;;;;22.58;56.67;100437.44;4837213;29;20485;-70
2021/06/20 08:31:06;;;;;;;6.03;1.88;;;;;;;21.87;58.06;100430.88;4806846;29;20054;-72
2021/06/20 08:33:33;;;;;;;7.18;2.03;;;;;;;21.90;59.22;100428.09;4837774;29;20409;-72
2021/06/20 08:36:01;;;;;;;5.65;2.17;;;;;;;22.57;58.22;100436.63;4838886;29;20065;-70
2021/06/20 08:38:28;;;;;;;7.55;2.05;;;;;;;22.19;58.09;100429.75;4837206;29;20065;-69
2021/06/20 08:40:56;;;;;;;5.63;1.95;;;;;;;22.30;58.00;100436.19;4836848;29;20054;-72
2021/06/20 08:43:24;;;;;;;8.18;1.98;;;;;;;21.94;58.63;100436.50;4837153;29;20512;-71
2021/06/20 08:45:53;;;;;;;11.82;2.03;;;;;;;22.16;59.69;100438.16;4837875;29;20061;-74
2021/06/20 08:48:20;;;;;;;5.90;2.00;;;;;;;21.85;58.85;100433.25;4838211;29;20065;-77
2021/06/20 08:50:49;;;;;;;8.80;1.85;;;;;;;22.17;59.19;100434.97;4838243;29;20058;-72
2021/06/20 08:53:19;;;;;;;10.82;2.17;;;;;;;22.92;57.50;100430.19;4900891;29;20057;-72
2021/06/20 09:00:15;;;;;;;5.88;2.15;;;;;;;22.80;56.90;100425.81;4838422;29;20038;-76
2021/06/20 09:02:43;;;;;;;8.65;3.10;;;;;;;22.57;55.98;100416.16;4838139;29;20057;-76
2021/06/20 09:05:15;;;;;;;7.30;1.90;;;;;;;22.55;57.03;100410.97;4838056;29;20249;-72
2021/06/20 09:07:44;;;;;;;11.00;2.20;;;;;;;22.39;56.32;100390.88;4838183;29;20058;-73
2021/06/20 09:14:50;;;;;;;4.30;1.95;;;;;;;22.07;57.43;100373.22;4837952;29;20401;-71
2021/06/20 09:17:25;;;;;;;10.25;1.65;;;;;;;22.18;57.49;100369.22;4837942;29;20065;-71
2021/06/20 09:19:58;;;;;;;7.85;1.63;;;;;;;22.11;57.41;100368.41;4837541;29;20054;-70
2021/06/20 09:22:26;;;;;;;5.55;1.70;;;;;;;22.69;57.45;100365.22;4838470;29;20058;-72
2021/06/20 09:29:37;;;;;;;6.63;1.80;;;;;;;21.95;58.50;100343.53;4837176;29;20430;-73
2021/06/20 09:32:09;;;;;;;6.18;1.75;;;;;;;22.20;57.71;100343.56;4837408;29;20065;-74
2021/06/20 09:34:46;;;;;;;5.75;2.00;;;;;;;22.21;57.35;100345.97;4900098;29;20065;-77
2021/06/20 09:37:15;;;;;;;10.00;2.28;;;;;;;21.84;57.85;100347.56;4837395;29;20058;-76
2021/06/20 09:44:42;;;;;;;9.13;2.20;;;;;;;22.46;56.07;100356.38;4840541;29;20482;-75
2021/06/20 09:47:13;;;;;;;10.18;2.08;;;;;;;22.83;56.21;100353.97;4903551;29;20072;-73
2021/06/20 09:49:45;;;;;;;4.53;1.70;;;;;;;22.85;54.41;100363.59;4902406;29;20050;-72
2021/06/20 09:52:13;;;;;;;;;;;;;;;22.59;54.30;100357.63;4825421;29;20057;-70
2021/06/20 09:54:46;;;;;;;8.93;2.28;;;;;;;22.75;55.56;100352.38;4903794;29;19936;-71
2021/06/20 09:57:16;;;;;;;6.82;1.88;;;;;;;22.81;54.94;100359.19;4839158;29;20061;-73
2021/06/20 10:00:07;;;;;;;6.20;2.15;;;;;;;22.78;55.53;100349.56;4840493;29;20050;-76
2021/06/20 10:02:42;;;;;;;6.43;1.80;;;;;;;22.58;54.77;100344.78;4839455;29;20062;-78
2021/06/20 10:05:11;;;;;;;7.13;2.30;;;;;;;22.78;55.02;100357.19;4839246;29;20390;-75
2021/06/20 10:07:47;;;;;;;7.50;2.40;;;;;;;22.81;54.53;100350.75;4899510;29;20053;-78
2021/06/20 10:10:21;;;;;;;7.90;2.97;;;;;;;23.06;55.13;100345.88;4840861;29;20402;-79
2021/06/20 10:12:48;;;;;;;6.68;2.25;;;;;;;23.09;54.34;100347.88;4886609;29;20452;-79
2021/06/20 10:15:16;;;;;;;6.82;2.05;;;;;;;23.18;53.77;100343.44;4840712;29;20061;-76
2021/06/20 10:17:46;;;;;;;7.65;2.13;;;;;;;23.38;53.89;100326.88;4839095;29;20058;-79
2021/06/20 10:20:17;;;;;;;8.52;2.30;;;;;;;23.70;52.73;100323.91;4838597;29;20077;-78
2021/06/20 10:22:47;;;;;;;9.05;2.40;;;;;;;23.86;53.07;100327.03;4824054;29;20058;-79
2021/06/20 10:25:28;;;;;;;;;;;;;;;23.85;52.60;100317.00;4903700;29;20050;-76
2021/06/20 10:28:08;;;;;;;7.00;1.90;;;;;;;23.99;52.54;100302.81;4840933;29;19924;-75
2021/06/20 10:30:36;;;;;;;6.18;1.85;;;;;;;23.87;52.14;100297.69;4886913;29;20414;-77
2021/06/20 10:33:13;;;;;;;6.78;1.60;;;;;;;23.47;53.04;100295.53;4841742;29;20046;-77
2021/06/20 10:35:43;;;;;;;3.92;1.50;;;;;;;23.90;52.97;100306.06;4844565;29;20064;-72
2021/06/20 10:38:33;;;;;;;10.23;2.28;;;;;;;23.43;50.94;100298.38;4841543;29;20498;-70
2021/06/20 10:41:01;;;;;;;6.07;1.38;;;;;;;23.46;51.18;100280.69;4839752;29;20054;-72
2021/06/20 10:43:28;;;;;;;3.10;1.50;;;;;;;23.34;52.05;100256.63;4824555;29;20390;-76
2021/06/20 10:45:56;;;;;;;6.35;1.60;;;;;;;22.94;52.24;100253.63;4823466;29;20406;-74
2021/06/20 10:48:28;;;;;;;6.57;1.77;;;;;;;22.65;53.78;100236.06;4837883;29;20524;-73
2021/06/20 10:50:57;;;;;;;23.58;16.33;;;;;;;23.33;52.36;100220.50;4838807;29;20057;-78
2021/06/20 10:53:26;;;;;;;5.47;1.63;;;;;;;23.17;51.55;100225.81;4839311;29;20058;-76
2021/06/20 10:55:58;;;;;;;9.00;2.42;;;;;;;23.35;50.77;100210.47;4840606;29;20057;-76
2021/06/20 10:58:26;;;;;;;4.72;2.05;;;;;;;23.63;50.21;100205.84;4839821;29;20060;-78
2021/06/20 11:01:11;;;;;;;5.70;1.60;;;;;;;23.54;50.07;100213.97;4839464;29;20058;-77
2021/06/20 11:03:40;;;;;;;7.55;2.08;;;;;;;23.92;49.68;100208.00;4902549;29;20419;-74
2021/06/20 11:06:08;;;;;;;5.25;1.88;;;;;;;24.07;49.28;100203.06;4839427;29;20528;-77
2021/06/20 11:08:42;;;;;;;6.07;2.10;;;;;;;23.99;48.78;100179.81;4839638;29;20054;-72
2021/06/20 11:11:10;;;;;;;5.40;2.65;;;;;;;23.95;48.39;100178.25;4837598;29;20058;-73
2021/06/20 11:13:39;;;;;;;5.65;1.77;;;;;;;24.09;47.53;100178.13;4839062;29;20054;-73
2021/06/20 11:16:08;;;;;;;4.28;1.85;;;;;;;24.07;46.94;100181.38;4840861;29;20394;-70
2021/06/20 11:18:35;;;;;;;5.43;1.50;;;;;;;24.21;45.34;100183.25;4838372;29;20049;-73
2021/06/20 11:21:04;;;;;;;12.65;2.25;;;;;;;24.60;45.53;100185.63;4837020;29;20249;-72
2021/06/20 11:23:31;;;;;;;5.65;2.00;;;;;;;24.95;46.64;100202.09;4837668;29;20065;-78
2021/06/20 11:26:01;;;;;;;4.20;1.80;;;;;;;25.28;44.44;100202.00;4838753;29;20350;-70
2021/06/20 11:28:29;;;;;;;6.63;2.13;;;;;;;25.27;45.47;100189.16;4839100;29;20379;-68
2021/06/20 11:31:10;;;;;;;8.30;2.30;;;;;;;25.23;44.63;100188.38;4838903;29;20050;-75
2021/06/20 11:33:39;;;;;;;5.03;2.00;;;;;;;25.51;45.83;100184.38;4839106;29;20054;-76
2021/06/20 11:36:07;;;;;;;6.47;1.95;;;;;;;25.93;43.90;100178.00;4839385;29;20053;-78
2021/06/20 11:38:41;;;;;;;4.40;1.90;;;;;;;25.72;44.23;100174.78;4886807;29;20058;-69
2021/06/20 11:41:17;;;;;;;4.95;1.77;;;;;;;25.67;43.66;100170.41;4838734;29;20053;-71
2021/06/20 11:43:57;;;;;;;7.65;2.20;;;;;;;25.49;43.36;100167.88;4837615;29;20061;-71
2021/06/20 11:46:27;;;;;;;5.35;2.03;;;;;;;25.50;44.54;100175.13;4839977;29;20049;-68
2021/06/20 11:48:59;;;;;;;;;;;;;;;25.64;44.28;100178.94;4837904;29;20054;-71
2021/06/20 11:51:29;;;;;;;8.05;3.80;;;;;;;25.63;43.47;100183.75;4839018;29;19928;-72
2021/06/20 11:54:06;;;;;;;5.53;2.40;;;;;;;25.83;44.10;100178.19;4839235;29;20058;-69
2021/06/20 11:56:34;;;;;;;6.05;2.30;;;;;;;26.01;42.24;100187.16;4839442;29;20069;-69
2021/06/20 11:59:02;;;;;;;3.92;1.67;;;;;;;25.75;42.84;100188.03;4823007;29;20057;-73
2021/06/20 12:01:39;;;;;;;8.13;1.90;;;;;;;26.19;41.99;100193.28;4839038;29;20145;-70
2021/06/20 12:04:08;;;;;;;5.85;2.20;;;;;;;26.21;43.81;100188.00;4837914;29;20061;-73
2021/06/20 12:06:36;;;;;;;5.72;2.45;;;;;;;26.10;42.56;100184.59;4838611;29;20054;-72
2021/06/20 12:09:06;;;;;;;5.78;2.45;;;;;;;26.14;42.26;100169.19;4838043;29;20541;-73
2021/06/20 12:11:34;;;;;;;;;;;;;;;25.92;42.62;100159.50;4837154;29;20389;-70
2021/06/20 12:14:02;;;;;;;6.40;3.72;;;;;;;26.07;42.79;100152.38;4838217;29;19928;-69
2021/06/20 12:16:30;;;;;;;8.35;2.42;;;;;;;25.79;43.34;100147.22;4837103;29;20066;-72
2021/06/20 12:18:58;;;;;;;7.03;4.40;;;;;;;26.10;43.04;100139.44;4839527;29;20058;-70
2021/06/20 12:21:30;;;;;;;5.15;2.42;;;;;;;25.95;44.83;100138.88;4837677;29;20446;-72
2021/06/20 12:23:58;;;;;;;8.93;4.22;;;;;;;25.67;45.24;100138.56;4838409;29;20073;-74
2021/06/20 12:26:31;;;;;;;4.47;1.73;;;;;;;25.71;44.42;100137.28;4840143;29;20502;-70
2021/06/20 12:33:24;;;;;;;8.23;2.05;;;;;;;26.14;44.62;100146.59;4874845;29;20058;-75
2021/06/20 12:35:54;;;;;;;5.83;1.77;;;;;;;25.82;45.33;100140.69;4875266;29;20064;-75
2021/06/20 12:38:23;;;;;;;5.93;2.25;;;;;;;25.84;45.20;100137.47;4859735;29;20065;-74
2021/06/20 12:40:51;;;;;;;4.65;2.03;;;;;;;25.46;45.33;100145.38;4875630;29;20064;-74